Time;durP1;ratioP1;P1;durP2;ratioP2;P2;SDS_P1;SDS_P2;PMS_P1;PMS_P2;Temp;Humidity;BMP_temperature;BMP_pressure;BME280_temperature;BME280_humidity;BME280_pressure;Samples;Min_cycle;Max_cycle;Signal;HPM_P1;HPM_P2
2022/08/14 00:01:04;;;;;;;;;9.00;9.00;;;;;27.82;26.96;100569.81;5094027;27;45507;-64
2022/08/14 00:03:30;;;;;;;;;7.67;7.67;;;;;27.80;27.96;100571.16;5087873;27;46529;-65
2022/08/14 00:05:57;;;;;;;;;6.33;6.33;;;;;27.74;27.91;100563.88;5091781;27;45453;-64
2022/08/14 00:08:23;;;;;;;;;8.33;8.00;;;;;27.67;27.39;100558.50;5084388;27;45563;-65
2022/08/14 00:10:49;;;;;;;;;10.67;9.00;;;;;27.63;28.00;100554.53;5096959;27;45553;-64
2022/08/14 00:13:17;;;;;;;;;7.67;7.00;;;;;27.64;27.57;100544.22;5088304;27;46255;-65
2022/08/14 00:15:45;;;;;;;;;7.67;7.00;;;;;27.62;27.80;100541.69;5074154;27;45342;-65
2022/08/14 00:18:13;;;;;;;;;9.33;6.67;;;;;27.62;27.64;100538.06;5094650;27;45344;-65
2022/08/14 00:20:41;;;;;;;;;6.67;6.67;;;;;27.60;27.22;100535.56;5087052;27;45357;-64
2022/08/14 00:23:08;;;;;;;;;7.67;6.00;;;;;27.60;27.13;100534.72;5100532;27;45436;-65
2022/08/14 00:25:34;;;;;;;;;9.00;9.00;;;;;27.54;27.56;100525.47;5091976;27;45227;-64
2022/08/14 00:27:59;;;;;;;;;8.00;6.33;;;;;27.48;28.39;100518.09;5086385;27;45385;-64
2022/08/14 00:30:25;;;;;;;;;7.00;7.00;;;;;27.43;28.27;100512.47;5089648;27;45452;-64
2022/08/14 00:32:50;;;;;;;;;7.00;5.67;;;;;27.49;27.47;100509.47;5100670;27;45578;-64
2022/08/14 00:35:16;;;;;;;;;11.67;8.00;;;;;27.54;27.99;100513.47;5087776;27;45426;-64
2022/08/14 00:37:44;;;;;;;;;9.00;8.67;;;;;27.57;28.05;100513.75;5102052;27;45274;-65
2022/08/14 00:40:12;;;;;;;;;6.50;6.50;;;;;27.48;27.80;100505.00;5088096;27;45376;-64
2022/08/14 00:42:38;;;;;;;;;8.33;8.33;;;;;27.47;28.05;100506.09;5089845;27;46126;-64
2022/08/14 00:45:06;;;;;;;;;8.00;7.00;;;;;27.42;28.13;100502.41;5097646;27;45214;-64
2022/08/14 00:47:34;;;;;;;;;6.67;6.33;;;;;27.39;27.92;100498.22;5090188;27;45322;-65
2022/08/14 00:50:01;;;;;;;;;6.00;6.00;;;;;27.45;28.04;100513.06;5084961;27;45269;-65
2022/08/14 00:52:27;;;;;;;;;8.67;7.00;;;;;27.37;27.74;100507.97;5094854;27;46104;-64
2022/08/14 00:54:53;;;;;;;;;6.67;6.67;;;;;27.30;28.26;100507.34;5084962;27;45243;-64
2022/08/14 00:57:21;;;;;;;;;7.33;7.33;;;;;27.29;27.96;100505.66;5095596;27;45428;-64
2022/08/14 00:59:47;;;;;;;;;7.25;7.25;;;;;27.30;28.32;100498.97;5080718;27;45336;-64
2022/08/14 01:02:14;;;;;;;;;6.00;4.33;;;;;27.34;28.41;100498.16;5092745;27;45520;-64
2022/08/14 01:04:43;;;;;;;;;5.33;5.33;;;;;27.28;28.41;100492.81;5083409;27;45322;-65
2022/08/14 01:07:09;;;;;;;;;7.67;7.67;;;;;27.23;28.27;100484.41;5089099;27;45404;-65
2022/08/14 01:09:37;;;;;;;;;5.00;5.00;;;;;27.18;28.63;100487.16;5085836;27;45401;-65
2022/08/14 01:12:04;;;;;;;;;6.00;6.00;;;;;27.16;28.59;100484.63;5072944;27;47598;-65
2022/08/14 01:14:30;;;;;;;;;4.00;4.00;;;;;27.15;28.68;100482.94;5083671;27;45512;-65
2022/08/14 01:16:56;;;;;;;;;6.00;6.00;;;;;27.15;28.56;100468.97;5092177;27;47421;-65
2022/08/14 01:22:06;;;;;;;;;5.67;5.67;;;;;27.30;27.30;100465.50;5097939;27;46022;-65
2022/08/14 01:24:32;;;;;;;;;5.00;5.00;;;;;27.32;27.74;100463.28;5092814;27;45175;-65
2022/08/14 01:26:58;;;;;;;;;5.00;5.00;;;;;27.36;27.85;100454.09;5099026;27;45414;-65
2022/08/14 01:29:26;;;;;;;;;4.67;4.67;;;;;27.43;27.83;100453.88;5084147;27;45410;-65
2022/08/14 01:31:51;;;;;;;;;7.33;5.33;;;;;27.36;28.33;100450.47;5096459;27;46404;-65
2022/08/14 01:34:24;;;;;;;;;8.00;6.33;;;;;27.39;28.15;100447.16;5074354;28;45362;-65
2022/08/14 01:36:52;;;;;;;;;7.33;5.33;;;;;27.40;27.94;100449.66;5081929;27;45467;-65
2022/08/14 01:39:17;;;;;;;;;5.67;5.67;;;;;27.38;28.01;100451.06;5091779;27;45247;-65
2022/08/14 01:41:48;;;;;;;;;8.33;7.67;;;;;27.42;28.00;100446.63;5092915;27;46138;-65
2022/08/14 01:44:16;;;;;;;;;6.00;6.00;;;;;27.36;27.69;100458.84;5097609;27;45299;-64
2022/08/14 01:46:43;;;;;;;;;7.00;6.00;;;;;27.33;28.41;100470.53;5079557;27;45516;-64
2022/08/14 01:49:14;;;;;;;;;7.00;7.00;;;;;27.29;28.20;100466.59;5083615;27;45432;-65
2022/08/14 01:51:40;;;;;;;;;7.00;6.00;;;;;27.22;28.54;100454.81;5091857;27;45931;-64
2022/08/14 01:54:16;;;;;;;;;7.00;5.67;;;;;27.26;28.97;100469.91;5087603;27;45628;-64
2022/08/14 01:56:43;;;;;;;;;5.00;5.00;;;;;27.16;28.63;100461.47;5090833;27;45415;-65
2022/08/14 01:59:14;;;;;;;;;5.00;5.00;;;;;27.19;28.79;100458.13;5087411;27;45308;-65
2022/08/14 02:01:39;;;;;;;;;6.00;6.00;;;;;27.15;28.58;100462.56;5091561;27;46414;-65
2022/08/14 02:04:05;;;;;;;;;6.00;6.00;;;;;27.16;28.70;100453.09;5086212;27;45361;-64
2022/08/14 02:06:30;;;;;;;;;4.33;4.33;;;;;27.16;28.69;100451.16;5094074;27;45451;-64
2022/08/14 02:08:56;;;;;;;;;5.33;5.33;;;;;27.10;28.70;100453.03;5090829;27;45306;-65
2022/08/14 02:11:24;;;;;;;;;5.67;5.67;;;;;27.01;29.18;100446.25;5094204;27;45686;-64
2022/08/14 02:14:03;;;;;;;;;7.67;7.00;;;;;26.93;29.09;100455.09;5087020;27;45330;-65
2022/08/14 02:16:37;;;;;;;;;5.00;5.00;;;;;26.95;29.02;100440.91;5078627;27;45383;-65
2022/08/14 02:19:06;;;;;;;;;7.33;7.33;;;;;26.87;29.33;100433.81;5096891;27;45239;-64
2022/08/14 02:21:32;;;;;;;;;7.00;7.00;;;;;26.85;29.59;100433.25;5098845;27;45474;-65
2022/08/14 02:24:03;;;;;;;;;5.67;5.67;;;;;26.88;29.16;100424.34;5088025;27;45444;-66
2022/08/14 02:26:34;;;;;;;;;6.67;5.33;;;;;26.85;29.62;100419.28;5088436;27;45490;-65
2022/08/14 02:29:04;;;;;;;;;5.00;5.00;;;;;26.79;29.31;100423.13;5085975;27;45335;-64
2022/08/14 02:31:32;;;;;;;;;6.00;4.00;;;;;26.74;29.57;100423.06;5103638;27;46481;-64
2022/08/14 02:33:59;;;;;;;;;6.00;6.00;;;;;26.81;29.13;100412.56;5096085;27;45311;-65
2022/08/14 02:36:26;;;;;;;;;7.00;7.00;;;;;26.87;29.06;100405.94;5096554;27;45383;-65
2022/08/14 02:38:52;;;;;;;;;5.00;5.00;;;;;26.93;29.03;100407.72;5081703;27;45442;-64
2022/08/14 02:41:17;;;;;;;;;6.00;6.00;;;;;26.94;29.02;100403.81;5100853;27;45491;-64
2022/08/14 02:43:43;;;;;;;;;6.67;5.00;;;;;26.94;29.21;100400.19;5101845;27;45296;-65
2022/08/14 02:46:10;;;;;;;;;8.00;8.00;;;;;26.91;29.17;100395.97;5097977;27;45222;-65
2022/08/14 02:48:40;;;;;;;;;8.00;7.33;;;;;26.92;29.72;100403.22;5083084;27;45536;-64
2022/08/14 02:51:11;;;;;;;;;6.33;6.00;;;;;26.82;29.48;100399.44;5096663;27;45524;-65
2022/08/14 02:53:43;;;;;;;;;6.33;6.33;;;;;26.74;29.37;100396.03;5091259;27;45264;-65
2022/08/14 02:56:10;;;;;;;;;7.67;7.00;;;;;26.74;29.61;100390.47;5074906;27;45211;-64
2022/08/14 02:58:38;;;;;;;;;8.00;8.00;;;;;26.75;29.95;100391.31;5072523;28;45384;-64
2022/08/14 03:01:05;;;;;;;;;8.00;8.00;;;;;26.72;29.78;100380.72;5094366;27;45820;-65
2022/08/14 03:03:30;;;;;;;;;7.33;7.33;;;;;26.73;29.63;100376.81;5089240;27;45329;-64
2022/08/14 03:05:56;;;;;;;;;9.00;9.00;;;;;26.80;29.99;100387.75;5093116;27;45233;-64
2022/08/14 03:08:22;;;;;;;;;11.00;8.33;;;;;26.82;29.49;100380.78;5089190;27;45354;-65
2022/08/14 03:10:47;;;;;;;;;11.33;9.67;;;;;26.85;29.54;100388.63;5092700;27;46584;-65
2022/08/14 03:13:12;;;;;;;;;8.67;8.67;;;;;26.85;29.46;100385.84;5088543;27;45274;-64
2022/08/14 03:15:52;;;;;;;;;12.67;9.00;;;;;26.83;29.63;100393.63;5088760;27;45727;-65
2022/08/14 03:18:21;;;;;;;;;9.67;9.67;;;;;26.73;30.14;100387.97;5095735;27;45326;-65
2022/08/14 03:20:47;;;;;;;;;9.00;9.00;;;;;26.65;30.40;100389.28;5073606;27;46575;-65
2022/08/14 03:23:13;;;;;;;;;10.25;10.25;;;;;26.52;30.53;100394.44;5073199;27;45420;-65
2022/08/14 03:25:39;;;;;;;;;13.00;10.00;;;;;26.44;30.40;100394.91;5091846;27;45472;-65
2022/08/14 03:28:07;;;;;;;;;11.33;8.67;;;;;26.41;30.75;100390.69;5095672;27;45263;-65
2022/08/14 03:30:34;;;;;;;;;8.00;7.00;;;;;26.40;30.29;100389.00;5090648;27;45268;-66
2022/08/14 03:33:00;;;;;;;;;7.00;7.00;;;;;26.50;30.69;100396.63;5075404;28;45219;-65
2022/08/14 03:35:26;;;;;;;;;9.00;9.00;;;;;26.48;30.69;100398.81;5088329;27;45180;-65
2022/08/14 03:37:52;;;;;;;;;7.67;7.00;;;;;26.42;30.62;100389.56;5100887;27;45314;-65
2022/08/14 03:40:21;;;;;;;;;10.67;9.33;;;;;26.39;30.87;100378.94;5087556;27;45239;-65
2022/08/14 03:42:49;;;;;;;;;10.33;8.00;;;;;26.31;31.09;100385.81;5098980;27;45417;-65
2022/08/14 03:45:16;;;;;;;;;10.67;9.00;;;;;26.29;30.73;100385.25;5098725;27;45374;-65
2022/08/14 03:47:41;;;;;;;;;7.00;7.00;;;;;26.34;31.41;100382.53;5084726;27;45257;-65
2022/08/14 03:50:09;;;;;;;;;9.00;8.00;;;;;26.38;30.82;100390.34;5068714;27;46995;-65
2022/08/14 03:52:36;;;;;;;;;11.00;8.00;;;;;26.34;30.80;100395.59;5094677;27;45341;-65
2022/08/14 03:55:05;;;;;;;;;9.67;9.00;;;;;26.32;31.21;100395.84;5087251;27;45508;-65
2022/08/14 03:57:32;;;;;;;;;8.00;8.00;;;;;26.30;30.66;100388.88;5094428;27;45610;-65
2022/08/14 04:00:02;;;;;;;;;8.00;8.00;;;;;26.41;30.19;100389.84;5086019;27;46592;-65
2022/08/14 04:02:28;;;;;;;;;7.00;7.00;;;;;26.41;30.54;100400.97;5080086;27;45451;-65
2022/08/14 04:04:53;;;;;;;;;9.00;7.67;;;;;26.41;30.65;100400.97;5087415;27;45383;-65
2022/08/14 04:07:18;;;;;;;;;9.00;7.33;;;;;26.44;30.68;100409.66;5093541;27;45337;-65
2022/08/14 04:09:44;;;;;;;;;10.00;7.00;;;;;26.46;30.68;100410.22;5086707;27;46294;-65
2022/08/14 04:12:09;;;;;;;;;6.00;6.00;;;;;26.50;30.11;100405.84;5092928;27;45361;-65
2022/08/14 04:14:35;;;;;;;;;9.00;8.67;;;;;26.53;30.36;100415.59;5084943;27;45242;-65
2022/08/14 04:17:00;;;;;;;;;8.67;8.67;;;;;26.54;30.60;100431.22;5093141;27;45429;-65
2022/08/14 04:19:25;;;;;;;;;8.67;6.00;;;;;26.45;30.34;100421.63;5093041;27;45761;-65
2022/08/14 04:21:50;;;;;;;;;9.00;9.00;;;;;26.35;30.58;100423.22;5090668;27;45441;-65
2022/08/14 04:24:17;;;;;;;;;10.33;8.00;;;;;26.24;31.25;100403.78;5094816;27;45356;-64
2022/08/14 04:26:43;;;;;;;;;11.33;10.00;;;;;26.21;31.07;100396.81;5101820;27;45471;-64
2022/08/14 04:29:11;;;;;;;;;7.33;7.33;;;;;26.26;31.21;100405.25;5085115;27;46142;-64
2022/08/14 04:31:38;;;;;;;;;9.67;9.33;;;;;26.22;30.74;100412.44;5096081;27;45448;-64
2022/08/14 04:34:04;;;;;;;;;10.25;10.25;;;;;26.22;31.41;100409.66;5093928;27;45365;-64
2022/08/14 04:36:29;;;;;;;;;9.00;8.00;;;;;26.11;31.42;100402.25;5094426;27;45490;-64
2022/08/14 04:44:22;;;;;;;;;11.00;10.50;;;;;26.08;31.61;100394.41;5098234;27;45319;-65
2022/08/14 04:49:32;;;;;;;;;11.50;10.00;;;;;26.12;31.56;100392.81;5083941;27;45268;-65
2022/08/14 04:51:59;;;;;;;;;11.00;10.33;;;;;26.16;31.74;100379.19;5091851;27;45654;-65
2022/08/14 04:54:25;;;;;;;;;9.33;9.33;;;;;26.21;31.32;100377.31;5083996;27;45461;-65
2022/08/14 04:56:53;;;;;;;;;8.33;8.33;;;;;26.27;31.24;100367.13;5092226;27;45426;-65
2022/08/14 04:59:18;;;;;;;;;11.33;11.00;;;;;26.27;31.41;100365.16;5085985;27;46275;-65
2022/08/14 05:01:44;;;;;;;;;11.50;11.00;;;;;26.21;31.53;100366.19;5089441;27;45366;-65
2022/08/14 05:04:11;;;;;;;;;11.00;10.75;;;;;26.29;31.31;100360.19;5084854;27;45274;-65
2022/08/14 05:06:37;;;;;;;;;14.25;12.00;;;;;26.35;31.57;100359.13;5091280;27;45443;-65
2022/08/14 05:09:03;;;;;;;;;9.33;9.33;;;;;26.35;31.04;100342.44;5086902;27;45421;-65
2022/08/14 05:11:32;;;;;;;;;10.00;10.00;;;;;26.38;31.12;100351.34;5073975;28;45405;-65
2022/08/14 05:14:00;;;;;;;;;10.67;9.33;;;;;26.39;31.04;100347.47;5083645;27;45360;-65
2022/08/14 05:16:30;;;;;;;;;6.00;5.00;;;;;26.38;31.24;100351.34;5090759;27;45688;-65
2022/08/14 05:18:56;;;;;;;;;10.50;9.00;;;;;26.33;31.64;100350.19;5092838;27;45326;-65
2022/08/14 05:21:21;;;;;;;;;11.67;11.67;;;;;26.39;31.20;100342.72;5089811;27;45223;-65
2022/08/14 05:23:47;;;;;;;;;11.00;11.00;;;;;26.42;31.33;100355.31;5093681;27;45267;-65
2022/08/14 05:26:17;;;;;;;;;10.75;9.50;;;;;26.40;31.03;100338.84;5076551;28;45415;-65
2022/08/14 05:28:43;;;;;;;;;12.00;10.50;;;;;26.58;30.84;100362.72;5086075;27;45438;-65
2022/08/14 05:31:10;;;;;;;;;12.25;10.00;;;;;26.57;30.94;100361.03;5093523;27;45406;-65
2022/08/14 05:33:36;;;;;;;;;11.00;10.75;;;;;26.60;31.33;100360.50;5094680;27;45289;-65
2022/08/14 05:36:05;;;;;;;;;12.25;9.50;;;;;26.58;31.46;100362.72;5093331;27;45516;-65
2022/08/14 05:38:34;;;;;;;;;9.50;9.50;;;;;26.50;31.95;100369.63;5092011;27;46270;-65
2022/08/14 05:41:04;;;;;;;;;14.00;11.00;;;;;26.47;31.82;100375.69;5091227;27;45546;-65
2022/08/14 05:43:30;;;;;;;;;10.50;10.50;;;;;26.49;31.96;100361.50;5097074;27;45464;-65
2022/08/14 05:45:57;;;;;;;;;10.50;10.50;;;;;26.53;31.71;100348.72;5079037;27;45437;-65
2022/08/14 05:48:23;;;;;;;;;11.33;11.00;;;;;26.69;31.89;100354.19;5092904;27;46947;-65
2022/08/14 05:50:50;;;;;;;;;10.67;9.33;;;;;26.85;31.19;100346.81;5102333;27;45267;-65
2022/08/14 05:53:16;;;;;;;;;12.75;12.75;;;;;26.97;31.13;100344.72;5091326;27;45367;-65
2022/08/14 05:55:41;;;;;;;;;12.00;12.00;;;;;26.96;31.21;100340.25;5076540;27;45527;-65
2022/08/14 05:58:07;;;;;;;;;10.25;10.00;;;;;27.04;30.94;100336.97;5087823;27;45679;-65
2022/08/14 06:00:40;;;;;;;;;11.50;11.00;;;;;27.39;30.65;100338.34;5089088;27;45441;-65
2022/08/14 06:03:11;;;;;;;;;10.00;10.00;;;;;28.20;29.44;100319.28;5087063;27;45197;-65
2022/08/14 06:05:37;;;;;;;;;10.50;10.00;;;;;28.43;28.83;100337.47;5087107;27;45519;-65
2022/08/14 06:08:03;;;;;;;;;12.25;10.75;;;;;28.30;29.84;100344.41;5086121;27;45739;-65
2022/08/14 06:10:30;;;;;;;;;8.67;8.67;;;;;28.20;29.47;100347.19;5088505;27;45447;-64
2022/08/14 06:12:57;;;;;;;;;10.67;9.33;;;;;28.26;29.88;100354.47;5085771;27;45460;-64
2022/08/14 06:15:22;;;;;;;;;10.75;10.75;;;;;28.64;29.17;100336.38;5085802;27;45393;-64
2022/08/14 06:17:50;;;;;;;;;11.00;9.67;;;;;28.91;28.63;100331.44;5094275;27;45397;-65
2022/08/14 06:20:16;;;;;;;;;10.00;9.00;;;;;28.83;28.82;100339.53;5085509;27;45499;-65
2022/08/14 06:22:43;;;;;;;;;12.25;9.75;;;;;28.66;29.41;100329.41;5094019;27;45473;-64
2022/08/14 06:25:09;;;;;;;;;9.75;9.00;;;;;28.43;29.01;100354.22;5090258;27;45418;-64
2022/08/14 06:27:39;;;;;;;;;6.00;6.00;;;;;28.14;29.01;100342.66;5096889;27;45413;-64
2022/08/14 06:30:11;;;;;;;;;6.67;6.67;;;;;28.21;28.57;100318.13;5083278;27;45295;-64
2022/08/14 06:32:37;;;;;;;;;4.00;4.00;;;;;28.10;28.60;100338.75;5098680;27;45250;-64
2022/08/14 06:35:07;;;;;;;;;6.00;6.00;;;;;27.98;28.77;100346.53;5087524;27;45404;-65
2022/08/14 06:37:50;;;;;;;;;5.00;5.00;;;;;28.03;28.96;100318.63;5096584;27;45432;-64
2022/08/14 06:40:19;;;;;;;;;8.00;7.00;;;;;27.97;28.76;100336.47;5084160;27;45415;-64
2022/08/14 06:42:44;;;;;;;;;5.33;5.00;;;;;27.99;28.85;100329.47;5091309;27;45310;-64
2022/08/14 06:45:10;;;;;;;;;6.67;5.67;;;;;28.06;28.67;100334.81;5095704;27;45390;-65
2022/08/14 06:47:39;;;;;;;;;6.67;5.00;;;;;28.07;28.63;100322.53;5086872;27;46341;-65
2022/08/14 06:50:07;;;;;;;;;4.33;2.67;;;;;27.91;28.98;100334.78;5083944;27;45393;-64
2022/08/14 06:52:33;;;;;;;;;6.67;6.67;;;;;27.89;29.04;100341.47;5090320;27;45322;-64
2022/08/14 06:54:58;;;;;;;;;5.00;5.00;;;;;27.94;28.75;100343.41;5087208;27;45289;-64
2022/08/14 06:57:24;;;;;;;;;5.00;5.00;;;;;27.84;28.62;100346.16;5095787;27;46649;-64
2022/08/14 06:59:50;;;;;;;;;5.67;5.67;;;;;27.80;29.56;100354.25;5085538;27;45492;-64
2022/08/14 07:07:43;;;;;;;;;6.67;6.67;;;;;27.94;28.81;100339.78;5090764;27;45477;-65
2022/08/14 07:10:09;;;;;;;;;5.33;5.33;;;;;28.00;29.59;100342.31;5090594;27;45569;-65
2022/08/14 07:12:34;;;;;;;;;6.00;6.00;;;;;28.01;29.29;100344.00;5073107;28;45300;-65
2022/08/14 07:15:00;;;;;;;;;5.67;5.67;;;;;28.12;28.48;100345.75;5086773;27;45424;-64
2022/08/14 07:17:26;;;;;;;;;7.00;7.00;;;;;28.06;28.60;100334.81;5095154;27;46561;-64
2022/08/14 07:19:52;;;;;;;;;6.00;6.00;;;;;28.13;29.09;100346.56;5089351;27;45342;-65
2022/08/14 07:22:17;;;;;;;;;6.33;6.00;;;;;28.17;28.33;100347.75;5094555;27;45184;-65
2022/08/14 07:24:43;;;;;;;;;6.00;4.33;;;;;28.35;28.33;100351.97;5095218;27;45315;-64
2022/08/14 07:27:08;;;;;;;;;4.00;4.00;;;;;28.63;28.04;100341.16;5099781;27;45323;-65
2022/08/14 07:29:33;;;;;;;;;6.33;6.33;;;;;28.78;28.00;100348.75;5079079;27;45309;-64
2022/08/14 07:31:59;;;;;;;;;8.33;7.00;;;;;28.85;27.64;100354.06;5076098;27;45269;-64
2022/08/14 07:34:24;;;;;;;;;9.00;8.00;;;;;28.96;27.74;100355.75;5094667;27;45196;-64
2022/08/14 07:36:49;;;;;;;;;6.00;6.00;;;;;29.03;27.43;100350.72;5077818;27;46951;-64
2022/08/14 07:39:15;;;;;;;;;5.33;5.00;;;;;29.10;27.03;100342.88;5093162;27;45337;-64
2022/08/14 07:41:43;;;;;;;;;6.00;6.00;;;;;29.42;27.33;100337.00;5075586;27;45778;-64
2022/08/14 07:44:10;;;;;;;;;6.00;6.00;;;;;29.73;27.40;100348.97;5102833;27;45583;-65
2022/08/14 07:46:36;;;;;;;;;6.00;6.00;;;;;29.92;26.21;100357.59;5092888;27;46068;-64
2022/08/14 07:49:02;;;;;;;;;8.33;6.67;;;;;29.96;26.57;100364.31;5084715;27;45344;-65
2022/08/14 07:51:27;;;;;;;;;5.67;5.67;;;;;29.90;25.75;100352.25;5078505;27;45460;-65
2022/08/14 07:53:52;;;;;;;;;7.00;6.67;;;;;29.70;26.03;100343.94;5093643;27;45214;-65
2022/08/14 07:56:18;;;;;;;;;5.67;5.67;;;;;29.61;26.01;100342.84;5091832;27;46301;-64
2022/08/14 07:58:44;;;;;;;;;9.00;7.33;;;;;29.75;25.81;100335.50;5086251;27;45387;-65
2022/08/14 08:01:10;;;;;;;;;6.67;6.67;;;;;29.64;26.21;100319.88;5077213;27;45248;-64
2022/08/14 08:03:41;;;;;;;;;6.33;6.33;;;;;29.63;26.47;100315.41;5086583;27;45399;-65
2022/08/14 08:06:07;;;;;;;;;6.00;6.00;;;;;29.79;26.22;100331.03;5090692;27;45354;-64
2022/08/14 08:08:32;;;;;;;;;7.33;6.67;;;;;29.78;26.38;100334.94;5072756;27;45434;-65
2022/08/14 08:10:59;;;;;;;;;5.00;5.00;;;;;29.41;26.74;100347.38;5075581;27;45447;-65
2022/08/14 08:13:26;;;;;;;;;6.33;6.33;;;;;29.46;27.14;100352.09;5094693;27;45322;-65
2022/08/14 08:15:55;;;;;;;;;6.33;6.33;;;;;30.00;26.33;100343.88;5067729;27;48057;-65
2022/08/14 08:18:21;;;;;;;;;7.00;7.00;;;;;30.46;25.46;100338.03;5096309;27;45350;-65
2022/08/14 08:20:49;;;;;;;;;6.33;6.33;;;;;30.93;25.23;100335.47;5069725;28;45228;-64
2022/08/14 08:23:17;;;;;;;;;7.00;7.00;;;;;31.25;24.20;100336.91;5098610;27;45405;-65
2022/08/14 08:25:44;;;;;;;;;5.00;5.00;;;;;31.47;24.77;100344.81;5093050;27;45496;-65
2022/08/14 08:28:22;;;;;;;;;6.67;6.67;;;;;31.59;23.91;100350.88;5094003;27;45255;-65
2022/08/14 08:31:00;;;;;;;;;5.33;5.33;;;;;31.77;23.75;100352.97;5074479;27;45598;-66
2022/08/14 08:33:30;;;;;;;;;5.33;5.33;;;;;31.92;23.68;100349.13;5093131;27;45277;-65
2022/08/14 08:36:02;;;;;;;;;3.67;3.67;;;;;31.35;24.30;100348.00;5092367;27;45355;-65
2022/08/14 08:38:27;;;;;;;;;2.00;2.00;;;;;31.24;24.44;100358.53;5092595;27;45258;-65
2022/08/14 08:40:55;;;;;;;;;4.00;4.00;;;;;31.25;24.10;100364.97;5090833;27;45503;-65
2022/08/14 08:43:31;;;;;;;;;7.00;7.00;;;;;31.16;24.60;100363.91;5079196;27;45514;-65
2022/08/14 08:45:59;;;;;;;;;6.00;6.00;;;;;31.23;24.12;100372.84;5094981;27;45962;-65
2022/08/14 08:48:29;;;;;;;;;7.00;7.00;;;;;31.63;24.36;100378.09;5083915;27;45317;-65
2022/08/14 08:51:00;;;;;;;;;6.67;5.67;;;;;32.29;22.95;100368.91;5091633;27;45439;-65
2022/08/14 08:53:34;;;;;;;;;5.00;5.00;;;;;32.00;23.50;100368.16;5096319;27;45329;-65
2022/08/14 08:56:00;;;;;;;;;4.67;4.67;;;;;31.59;23.50;100356.47;5090790;27;46373;-65
2022/08/14 08:58:26;;;;;;;;;5.67;5.67;;;;;32.04;23.50;100356.00;5087424;27;45488;-65
2022/08/14 09:00:54;;;;;;;;;7.00;7.00;;;;;31.57;23.64;100351.16;5091109;27;45259;-65
2022/08/14 09:03:25;;;;;;;;;5.33;4.00;;;;;31.48;24.42;100336.13;5088349;27;45590;-65
2022/08/14 09:05:53;;;;;;;;;4.50;4.50;;;;;31.63;23.67;100341.56;5096656;27;46286;-65
2022/08/14 09:08:26;;;;;;;;;7.67;6.00;;;;;31.51;24.44;100331.84;5086233;27;45472;-65
2022/08/14 09:10:54;;;;;;;;;12.00;10.00;;;;;31.54;24.43;100332.13;5081301;27;45586;-65
2022/08/14 09:13:24;;;;;;;;;8.00;6.33;;;;;31.95;23.92;100332.50;5094424;27;45443;-65
2022/08/14 09:15:49;;;;;;;;;8.25;7.00;;;;;31.80;24.68;100326.22;5089301;27;46430;-66
2022/08/14 09:18:18;;;;;;;;;8.00;8.00;;;;;31.85;24.52;100337.41;5092338;27;45334;-65
2022/08/14 09:20:46;;;;;;;;;7.50;6.50;;;;;32.09;24.65;100335.41;5084607;27;45531;-64
2022/08/14 09:23:13;;;;;;;;;14.50;12.25;;;;;32.14;25.02;100331.72;5090496;27;45476;-64
2022/08/14 09:25:44;;;;;;;;;7.00;7.00;;;;;32.60;24.63;100329.09;5090115;27;45339;-65
2022/08/14 09:28:11;;;;;;;;;9.00;9.00;;;;;32.51;24.96;100333.75;5101743;27;45545;-65
2022/08/14 09:30:40;;;;;;;;;7.75;7.75;;;;;32.94;25.01;100312.00;5088107;27;45416;-65
2022/08/14 09:33:39;;;;;;;;;10.25;8.75;;;;;32.98;25.14;100313.03;5098235;27;45278;-65
2022/08/14 09:36:39;;;;;;;;;11.00;11.00;;;;;33.06;25.47;100310.38;5098629;27;46350;-65
2022/08/14 09:39:17;;;;;;;;;9.67;8.33;;;;;32.96;25.40;100324.59;5086774;27;45370;-65
2022/08/14 09:42:19;;;;;;;;;7.67;7.67;;;;;32.90;25.74;100320.19;5072074;28;45335;-65
2022/08/14 09:45:14;;;;;;;;;7.67;7.67;;;;;32.51;26.35;100330.94;5083474;28;45426;-64
2022/08/14 09:47:59;;;;;;;;;7.75;6.25;;;;;32.48;27.00;100327.59;5085840;27;45364;-64
2022/08/14 09:50:31;;;;;;;;;6.00;5.00;;;;;32.42;27.02;100326.00;5086385;27;45576;-66
2022/08/14 09:53:05;;;;;;;;;7.25;7.00;;;;;32.88;26.39;100327.31;5096701;27;45315;-64
2022/08/14 09:55:34;;;;;;;;;6.75;6.75;;;;;33.22;26.03;100342.78;5088456;27;45460;-64
2022/08/14 09:58:19;;;;;;;;;7.50;6.50;;;;;33.09;26.49;100334.25;5095881;27;45616;-64
2022/08/14 10:00:53;;;;;;;;;5.67;5.67;;;;;33.05;26.59;100336.84;5088395;27;45405;-65
2022/08/14 10:03:31;;;;;;;;;8.67;6.67;;;;;33.27;26.31;100338.19;5093773;27;45285;-64
2022/08/14 10:06:08;;;;;;;;;10.00;7.33;;;;;33.24;26.53;100326.38;5088289;27;45471;-64
2022/08/14 10:08:59;;;;;;;;;7.67;6.00;;;;;33.74;25.98;100326.63;5088542;27;46171;-64
2022/08/14 10:11:28;;;;;;;;;8.50;6.00;;;;;34.35;25.81;100319.69;5089086;27;45437;-64
2022/08/14 10:13:58;;;;;;;;;7.33;6.67;;;;;34.63;25.04;100331.75;5082997;27;45492;-66
2022/08/14 10:16:27;;;;;;;;;7.33;7.33;;;;;34.26;25.13;100342.19;5089411;27;45263;-64
2022/08/14 10:19:06;;;;;;;;;5.67;5.67;;;;;34.61;25.18;100323.59;5091631;27;45344;-65
2022/08/14 10:21:33;;;;;;;;;4.00;4.00;;;;;34.92;25.01;100328.53;5088621;27;45345;-64
2022/08/14 10:23:59;;;;;;;;;7.00;7.00;;;;;35.13;25.00;100329.69;5092527;27;45246;-65
2022/08/14 10:26:24;;;;;;;;;9.00;6.00;;;;;35.55;24.05;100324.63;5101300;27;45283;-64
2022/08/14 10:28:51;;;;;;;;;8.50;6.25;;;;;35.79;24.59;100319.44;5096706;27;45329;-65
2022/08/14 10:31:20;;;;;;;;;6.00;6.00;;;;;35.64;24.02;100317.03;5097389;27;45463;-65
2022/08/14 10:33:59;;;;;;;;;6.75;6.75;;;;;35.16;25.20;100312.06;5085260;27;45269;-64
2022/08/14 10:37:00;;;;;;;;;7.75;7.00;;;;;35.42;25.00;100313.09;5104226;27;45440;-65
2022/08/14 10:39:25;;;;;;;;;10.50;7.25;;;;;35.20;24.99;100313.09;5085672;27;45514;-65
2022/08/14 10:42:06;;;;;;;;;5.00;5.00;;;;;35.62;25.08;100313.69;5093688;27;45404;-65
2022/08/14 10:44:38;;;;;;;;;3.75;3.75;;;;;34.94;24.89;100307.28;5074463;27;45320;-67
2022/08/14 10:47:08;;;;;;;;;7.75;5.00;;;;;35.25;24.82;100313.00;5096372;27;45379;-64
2022/08/14 10:49:34;;;;;;;;;6.50;4.00;;;;;35.40;23.90;100323.88;5089237;27;46411;-66
2022/08/14 10:52:07;;;;;;;;;5.75;5.75;;;;;35.47;23.77;100318.59;5082817;27;45519;-65
2022/08/14 10:54:38;;;;;;;;;5.75;5.00;;;;;35.41;24.43;100331.22;5086051;27;45339;-65
2022/08/14 10:57:29;;;;;;;;;4.75;4.75;;;;;35.26;25.17;100325.97;5100535;27;45373;-65
2022/08/14 10:59:59;;;;;;;;;6.25;6.25;;;;;35.88;24.26;100326.78;5082639;27;45522;-65
2022/08/14 11:02:30;;;;;;;;;7.25;7.25;;;;;35.27;25.05;100324.81;5099189;27;46551;-67
2022/08/14 11:05:00;;;;;;;;;6.00;6.00;;;;;35.31;24.62;100328.66;5085851;27;45451;-65
2022/08/14 11:07:27;;;;;;;;;15.50;13.50;;;;;35.66;24.39;100326.00;5097394;27;45481;-65
2022/08/14 11:09:57;;;;;;;;;9.25;6.75;;;;;35.74;24.20;100331.72;5090063;27;45756;-65
2022/08/14 11:12:39;;;;;;;;;7.00;6.25;;;;;35.66;24.11;100326.81;5093506;27;45291;-65
2022/08/14 11:15:05;;;;;;;;;4.75;4.75;;;;;35.63;24.42;100321.00;5089094;27;45275;-64
2022/08/14 11:17:30;;;;;;;;;5.00;3.33;;;;;35.03;24.83;100336.41;5094282;27;45176;-65
2022/08/14 11:19:58;;;;;;;;;7.33;7.33;;;;;34.41;25.36;100338.19;5089786;27;46225;-67
2022/08/14 11:22:29;;;;;;;;;9.00;6.00;;;;;34.32;25.78;100326.81;5097239;27;45236;-64
2022/08/14 11:25:01;;;;;;;;;6.00;6.00;;;;;34.68;25.89;100332.44;5094257;27;45321;-64
2022/08/14 11:27:30;;;;;;;;;8.25;8.25;;;;;35.18;25.20;100329.53;5099875;27;46276;-64
2022/08/14 11:30:09;;;;;;;;;16.25;15.75;;;;;35.44;24.65;100324.06;5072566;27;46659;-67
2022/08/14 11:32:37;;;;;;;;;9.75;9.75;;;;;35.69;24.57;100343.16;5098462;27;45555;-64
2022/08/14 11:35:03;;;;;;;;;9.75;8.25;;;;;35.09;25.53;100328.63;5088869;27;45314;-65
2022/08/14 11:37:32;;;;;;;;;8.00;8.00;;;;;34.54;26.31;100333.66;5075387;28;45381;-65
2022/08/14 11:40:00;;;;;;;;;46.00;38.25;;;;;34.80;25.84;100334.72;5090185;27;46562;-65
2022/08/14 11:42:27;;;;;;;;;6.00;6.00;;;;;34.38;26.04;100336.81;5094332;27;45530;-66
2022/08/14 11:44:56;;;;;;;;;11.00;11.00;;;;;34.57;26.56;100336.66;5068740;27;45361;-66